• Join FlightAware (Why Join?)
  • Login
  • US Flag 
12:38PM EDT


 

Airport Tracker/Info


-or-


 

Live Flight TrackerFlight Track Log ✈ UAL878 ✈ 22-Apr-2013 ✈ ZSPD / PVG - KLAX

Flight Track Log - Related Links

Times and Time Zones

All times are in EDT time to prevent confusion due to time zone crossing. See the UAL878 flight status page for this flight to view local times or setup timezone preferences in your user account.

Time Position Orientation Groundspeed Altitude Reporting Facility
EDT Latitude Longitude Course Direction KTS MPH feet Rate Location/Type
08:25AM 31.0050 121.9180 146° Southeast 248 285 4,200  Level FlightAware
08:26AM 30.9810 121.9380 144° Southeast 254 292 5,100 1,800 Climbing FlightAware
08:26AM 30.9700 121.9550 127° Southeast 270 311 5,400 1,200 Climbing FlightAware
08:26AM 30.9660 121.9760 103° East 279 321 5,700 600 Climbing FlightAware
08:27AM 30.9690 122.0140 85° East 285 328 5,800 300 Climbing FlightAware
08:27AM 30.9770 122.0600 79° East 290 334 6,000 780 Climbing FlightAware
08:28AM 30.9830 122.1080 82° East 312 359 6,600 1,020 Climbing FlightAware
08:28AM 30.9850 122.1230 81° East 321 369 6,700 1,500 Climbing FlightAware
08:28AM 30.9920 122.1770 81° East 332 382 7,600 1,800 Climbing FlightAware
08:29AM 30.9980 122.2260 82° East 333 383 8,500 1,860 Climbing FlightAware
08:29AM 31.0010 122.2840 87° East 340 391 9,500 1,680 Climbing FlightAware
08:30AM 31.0010 122.3220 90° East 349 402 9,900 900 Climbing FlightAware
08:30AM 31.0010 122.4180 90° East 386 444 10,600 1,260 Climbing FlightAware
08:31AM 31.0010 122.5070 90° East 400 460 11,800 1,920 Climbing FlightAware
08:32AM 31.0010 122.5910 90° East 411 473 13,200 1,980 Climbing FlightAware
08:32AM 31.0010 122.6640 90° East 419 482 14,300 1,800 Climbing FlightAware
08:33AM 31.0010 122.7690 90° East 432 497 15,600 1,800 Climbing FlightAware
08:34AM 31.0010 122.8830 90° East 442 509 17,000 1,620 Climbing FlightAware
08:35AM 31.0180 123.0250 82° East 456 525 18,500 1,560 Climbing FlightAware
08:36AM 31.0670 123.1070 55° Northeast 468 539 19,600 720 Climbing FlightAware
08:36AM 31.1200 123.1930 54° Northeast 468 539 19,600  Level FlightAware
08:37AM 31.1640 123.2620 53° Northeast 468 539 19,600  Level FlightAware
08:38AM 31.2070 123.3320 54° Northeast 468 539 19,600  Level FlightAware
08:38AM 31.2500 123.4020 54° Northeast 468 539 19,600  Level FlightAware
08:39AM 31.2940 123.4710 53° Northeast 468 539 19,600 240 Level FlightAware
08:40AM 31.4480 123.7320 55° Northeast 25,000 240 Climbing FlightAware
08:43AM 31.6474 123.9855 71° East  Level Estimated
08:44AM 31.7432 124.1079 76° East  Level Estimated
08:45AM 31.7398 124.2742 91° East  Level FlightAware Approximate
08:46AM 31.7362 124.4404 91° East  Level FlightAware Approximate
08:47AM 31.8315 124.5634 77° East  Level Estimated
08:48AM 31.8258 124.7297 92° East  Level FlightAware Approximate
08:49AM 31.9209 124.8531 75° East  Level Estimated
08:50AM 31.9394 125.0183 82° East  Level FlightAware Approximate
08:51AM 31.9577 125.1836 83° East  Level FlightAware Approximate
08:52AM 31.9758 125.3490 83° East  Level FlightAware Approximate
08:53AM 31.9937 125.5145 83° East  Level FlightAware Approximate
08:54AM 32.0113 125.6799 83° East  Level FlightAware Approximate
08:55AM 32.0288 125.8455 83° East  Level FlightAware Approximate
08:56AM 32.1227 125.9703 75° East  Level Estimated
08:57AM 32.1379 126.1364 84° East  Level FlightAware Approximate
08:58AM 32.1528 126.3025 84° East  Level FlightAware Approximate
08:59AM 32.1675 126.4687 84° East  Level FlightAware Approximate
09:00AM 32.2608 126.5943 75° East  Level Estimated
09:01AM 32.2632 126.7616 89° East  Level FlightAware Approximate
09:02AM 32.3563 126.8877 75° East  Level Estimated
09:03AM 32.3839 127.0519 79° East  Level FlightAware Approximate
09:04AM 32.4114 127.2162 79° East  Level FlightAware Approximate
09:05AM 32.4386 127.3807 79° East  Level FlightAware Approximate
09:06AM 32.4656 127.5452 79° East  Level FlightAware Approximate
09:07AM 32.4924 127.7099 79° East  Level FlightAware Approximate
09:08AM 32.5190 127.8746 79° East  Level FlightAware Approximate
09:09AM 32.5454 128.0394 79° East  Level FlightAware Approximate
09:10AM 32.5716 128.2044 79° East  Level FlightAware Approximate
09:11AM 32.5975 128.3694 79° East  Level FlightAware Approximate
09:12AM 32.6232 128.5345 79° East  Level FlightAware Approximate
09:13AM 32.7145 128.6629 76° East  Level Estimated
09:14AM 32.8056 128.7915 82° East  Level Estimated
09:15AM 32.8966 128.9205 77° East  Level Estimated
09:16AM 32.9136 129.0877 83° East  Level FlightAware Approximate
09:17AM 32.9304 129.2550 83° East  Level FlightAware Approximate
09:18AM 32.9469 129.4224 83° East  Level FlightAware Approximate
09:19AM 32.9632 129.5899 83° East  Level FlightAware Approximate
09:20AM 32.9793 129.7574 83° East  Level FlightAware Approximate
09:21AM 32.9952 129.9250 84° East  Level FlightAware Approximate
09:22AM 33.0108 130.0926 84° East  Level FlightAware Approximate
09:23AM 33.0262 130.2603 84° East  Level FlightAware Approximate
09:24AM 33.0414 130.4280 84° East  Level FlightAware Approximate
09:25AM 33.0564 130.5958 84° East  Level FlightAware Approximate
09:26AM 33.0712 130.7637 84° East  Level FlightAware Approximate
09:27AM 33.1602 130.8949 77° East  Level Estimated
09:27AM 33.5090 131.5050 85° East 550 633 33,000  Level FlightAware
09:28AM 33.1724 131.0633 85° East  Level FlightAware Approximate
09:28AM 33.5470 131.6350 71° East 550 633 33,000  Level FlightAware
09:28AM 33.5800 131.7490 71° East 551 634 33,000  Level FlightAware
09:29AM 33.6130 131.8650 71° East 551 634 33,000  Level FlightAware
09:30AM 33.6490 131.9900 71° East 552 635 33,000  Level FlightAware
09:30AM 33.6850 132.1140 71° East 551 634 33,000  Level FlightAware
09:31AM 33.7210 132.2420 71° East 552 635 33,000  Level FlightAware
09:32AM 33.7540 132.3560 71° East 552 635 33,000  Level FlightAware
09:32AM 33.7860 132.4710 71° East 552 635 33,000  Level FlightAware
09:33AM 33.8230 132.6020 71° East 550 633 33,000  Level FlightAware
09:34AM 33.8570 132.7210 71° East 550 633 33,000  Level FlightAware
09:35AM 33.8930 132.8520 72° East 547 629 33,000  Level FlightAware
09:35AM 33.9240 132.9640 72° East 548 631 33,000  Level FlightAware
09:36AM 33.9580 133.0840 71° East 548 631 33,000  Level FlightAware
09:37AM 33.9930 133.2130 72° East 548 631 33,000  Level FlightAware
09:37AM 34.0250 133.3310 72° East 545 627 33,000  Level FlightAware
09:38AM 34.0620 133.4640 71° East 544 626 33,000  Level FlightAware
09:39AM 34.0900 133.5690 72° East 544 626 33,000  Level FlightAware
09:40AM 34.1300 133.7140 72° East 545 627 33,000  Level FlightAware
09:40AM 34.1620 133.8330 72° East 544 626 33,000  Level FlightAware
09:41AM 34.1930 133.9480 72° East 543 625 33,000  Level FlightAware
09:42AM 34.2220 134.0710 74° East 546 628 33,000  Level FlightAware
09:42AM 34.2480 134.1980 76° East 547 629 33,000  Level FlightAware
09:43AM 34.2730 134.3240 76° East 547 629 33,000  Level FlightAware
09:44AM 34.2980 134.4500 76° East 547 629 33,000  Level FlightAware
09:44AM 34.3210 134.5670 77° East 547 629 33,000  Level FlightAware
09:45AM 34.3480 134.7030 76° East 547 629 33,000  Level FlightAware
09:46AM 34.3720 134.8230 76° East 546 628 33,000  Level FlightAware
09:46AM 34.3930 134.9340 77° East 546 628 33,000  Level FlightAware
09:47AM 34.4320 135.0680 71° East 533 613 33,000  Level FlightAware
09:48AM 34.4690 135.1770 68° East 534 615 33,000  Level FlightAware
09:49AM 34.5090 135.3010 69° East 537 618 33,000  Level FlightAware
09:49AM 34.5440 135.4140 69° East 538 619 33,000  Level FlightAware
09:50AM 34.5850 135.5420 69° East 536 617 33,000  Level FlightAware
09:51AM 34.6230 135.6550 68° East 537 618 33,000  Level FlightAware
09:51AM 34.6540 135.7520 69° East 536 617 33,000  Level FlightAware
09:52AM 34.6990 135.8870 68° East 535 616 33,000  Level FlightAware
09:53AM 34.7320 135.9900 69° East 533 613 33,000  Level FlightAware
09:53AM 34.7710 136.1110 69° East 530 610 33,000  Level FlightAware
09:54AM 34.8030 136.2090 68° East 530 610 33,000  Level FlightAware
09:55AM 34.8460 136.3440 69° East 531 611 33,000  Level FlightAware
09:56AM 34.8820 136.4560 69° East 533 613 33,000  Level FlightAware
09:56AM 34.9230 136.5820 68° East 535 616 33,000  Level FlightAware
09:57AM 34.9580 136.6930 69° East 536 617 33,000  Level FlightAware
09:58AM 34.9940 136.8080 69° East 535 616 33,000  Level FlightAware
09:58AM 35.0350 136.9350 68° East 535 616 33,000  Level FlightAware
09:59AM 35.0700 137.0470 69° East 531 611 33,000  Level FlightAware
10:00AM 35.1100 137.1750 69° East 528 608 33,000  Level FlightAware
10:00AM 35.1450 137.2860 69° East 528 608 33,000  Level FlightAware
10:01AM 35.1830 137.4090 69° East 528 608 33,000  Level FlightAware
10:02AM 35.2190 137.5230 69° East 529 609 33,000  Level FlightAware
10:03AM 35.2530 137.6360 70° East 530 610 33,000  Level FlightAware
10:03AM 35.2930 137.7640 69° East 531 611 33,000  Level FlightAware
10:04AM 35.3270 137.8770 70° East 531 611 33,000  Level FlightAware
10:05AM 35.3620 137.9900 69° East 533 613 33,000  Level FlightAware
10:05AM 35.4010 138.1190 70° East 533 613 33,000  Level FlightAware
10:06AM 35.4340 138.2280 70° East 534 615 33,000  Level FlightAware
10:07AM 35.4740 138.3600 70° East 536 617 33,000  Level FlightAware
10:07AM 35.5080 138.4740 70° East 536 617 33,000  Level FlightAware
10:08AM 35.5430 138.5900 70° East 537 618 33,000  Level FlightAware
10:09AM 35.5810 138.7190 70° East 537 618 33,000  Level FlightAware
10:10AM 35.6150 138.8340 70° East 536 617 33,000  Level FlightAware
10:10AM 35.6530 138.9630 70° East 537 618 33,000  Level FlightAware
10:11AM 35.6870 139.0780 70° East 536 617 33,000  Level FlightAware
10:12AM 35.7190 139.1900 71° East 536 617 33,000  Level FlightAware
10:12AM 35.7550 139.3240 72° East 543 625 33,000  Level FlightAware
10:13AM 35.7870 139.4540 73° East 541 623 33,000  Level FlightAware
10:14AM 35.8170 139.5720 73° East 539 620 33,000  Level FlightAware
10:14AM 35.8470 139.6900 73° East 537 618 33,000  Level FlightAware
10:15AM 35.8750 139.7980 72° East 535 616 33,000  Level FlightAware
10:16AM 35.9070 139.9260 73° East 534 615 33,000  Level FlightAware
10:17AM 35.9390 140.0510 72° East 533 613 33,000  Level FlightAware
10:17AM 35.9670 140.1620 73° East 530 610 33,000  Level FlightAware
10:18AM 35.9990 140.2880 73° East 530 610 33,000  Level FlightAware
10:19AM 36.0290 140.4090 73° East 529 609 33,000  Level FlightAware
10:19AM 36.0580 140.5270 73° East 529 609 33,000  Level FlightAware
10:20AM 36.0880 140.6480 73° East 531 611 33,000  Level FlightAware
10:21AM 36.1220 140.7900 73° East 532 612 33,000  Level FlightAware
10:21AM 36.1470 140.8900 73° East 533 613 33,000  Level FlightAware
10:22AM 36.1800 141.0290 74° East 532 612 33,000  Level FlightAware
10:23AM 36.2100 141.1520 73° East 531 611 33,000  Level FlightAware
10:24AM 36.2380 141.2700 74° East 529 609 33,000  Level FlightAware
10:24AM 36.2680 141.3940 73° East 528 608 33,000  Level FlightAware
10:25AM 36.3050 141.5500 74° East 528 608 33,000  Level FlightAware
10:26AM 36.3370 141.6870 74° East 527 606 33,000  Level FlightAware
10:26AM 36.3580 141.7750 73° East 525 604 33,000  Level FlightAware
10:27AM 36.3940 141.9270 74° East 523 602 33,000  Level FlightAware
10:28AM 36.4210 142.0430 74° East 523 602 33,000  Level FlightAware
10:29AM 36.4470 142.1570 74° East 522 601 33,000  Level FlightAware
10:29AM 36.4760 142.2820 74° East 521 600 33,000  Level FlightAware
10:30AM 36.4970 142.3740 74° East 521 600 33,000  Level FlightAware
10:31AM 36.5260 142.5000 74° East 521 600 33,000  Level FlightAware
10:31AM 36.5480 142.5980 74° East 521 600 33,000  Level FlightAware
10:32AM 36.5710 142.6960 74° East 521 600 33,000  Level FlightAware
10:33AM 36.5990 142.8190 74° East 521 600 33,000  Level FlightAware
10:34AM 36.6220 142.9170 74° East 521 600 33,000  Level FlightAware
10:34AM 36.6440 143.0150 74° East 521 600 33,000  Level FlightAware
10:35AM 36.6670 143.1130 74° East 521 600 33,000  Level FlightAware
10:36AM 36.6900 143.2120 74° East 521 600 33,000  Level FlightAware
10:36AM 36.7180 143.3350 74° East 521 600 33,000  Level FlightAware
10:37AM 36.7400 143.4330 74° East 521 600 33,000  Level FlightAware
10:38AM 36.7630 143.5310 74° East 521 600 33,000  Level FlightAware
10:38AM 36.7850 143.6300 74° East 521 600 33,000  Level FlightAware
10:39AM 36.8080 143.7280 74° East 521 600 33,000  Level FlightAware
10:40AM 36.8360 143.8510 74° East 521 600 33,000  Level FlightAware
10:42AM 37.0041 144.0187 82° East  Level FlightAware Approximate
10:43AM 37.0245 144.1940 82° East  Level FlightAware Approximate
10:44AM 37.0446 144.3694 82° East  Level FlightAware Approximate
10:45AM 37.0645 144.5449 82° East  Level FlightAware Approximate
10:46AM 37.0841 144.7205 82° East  Level FlightAware Approximate
10:47AM 37.1034 144.8961 82° East  Level FlightAware Approximate
10:48AM 37.1225 145.0719 82° East  Level FlightAware Approximate
10:49AM 37.1413 145.2478 82° East  Level FlightAware Approximate
10:50AM 37.1599 145.4237 82° East  Level FlightAware Approximate
10:51AM 37.1782 145.5997 83° East  Level FlightAware Approximate
10:52AM 37.2372 145.7574 58° Northeast  Level FlightAware Approximate
10:53AM 37.3126 145.9081 58° Northeast  Level FlightAware Approximate
10:54AM 37.3878 146.0591 58° Northeast  Level FlightAware Approximate
10:55AM 37.4627 146.2104 58° Northeast  Level FlightAware Approximate
10:56AM 37.5375 146.3621 58° Northeast  Level FlightAware Approximate
10:57AM 37.6121 146.5140 58° Northeast  Level FlightAware Approximate
10:58AM 37.6865 146.6663 58° Northeast  Level FlightAware Approximate
10:59AM 37.7607 146.8188 58° Northeast  Level FlightAware Approximate
11:00AM 37.8347 146.9717 58° Northeast  Level FlightAware Approximate
11:01AM 37.9085 147.1249 59° Northeast  Level FlightAware Approximate
11:02AM 37.9822 147.2783 59° Northeast  Level FlightAware Approximate
11:03AM 38.0556 147.4321 59° Northeast  Level FlightAware Approximate
11:04AM 38.1288 147.5862 59° Northeast  Level FlightAware Approximate
11:05AM 38.2018 147.7406 59° Northeast  Level FlightAware Approximate
11:06AM 38.2746 147.8953 59° Northeast  Level FlightAware Approximate
11:07AM 38.3472 148.0503 59° Northeast  Level FlightAware Approximate
11:08AM 38.4196 148.2057 59° Northeast  Level FlightAware Approximate
11:09AM 38.4918 148.3613 59° Northeast  Level FlightAware Approximate
11:10AM 38.5638 148.5172 59° Northeast  Level FlightAware Approximate
11:11AM 38.6355 148.6735 60° Northeast  Level FlightAware Approximate
11:12AM 38.7071 148.8301 60° Northeast  Level FlightAware Approximate
11:13AM 38.7785 148.9870 60° Northeast  Level FlightAware Approximate
11:14AM 38.8496 149.1442 60° Northeast  Level FlightAware Approximate
11:15AM 38.9206 149.3017 60° Northeast  Level FlightAware Approximate
11:16AM 38.9912 149.4593 60° Northeast  Level FlightAware Approximate
11:17AM 39.0616 149.6172 60° Northeast  Level FlightAware Approximate
11:18AM 39.1318 149.7755 60° Northeast  Level FlightAware Approximate
11:19AM 39.2212 149.9156 47° Northeast  Level FlightAware Approximate
11:20AM 39.3174 150.0497 47° Northeast  Level FlightAware Approximate
11:21AM 39.4133 150.1841 47° Northeast  Level FlightAware Approximate
11:22AM 39.5092 150.3188 47° Northeast  Level FlightAware Approximate
11:23AM 39.6048 150.4540 47° Northeast  Level FlightAware Approximate
11:24AM 39.7004 150.5895 47° Northeast  Level FlightAware Approximate
11:25AM 39.7957 150.7254 48° Northeast  Level FlightAware Approximate
11:26AM 39.8909 150.8616 48° Northeast  Level FlightAware Approximate
11:27AM 39.9859 150.9983 48° Northeast  Level FlightAware Approximate
11:28AM 40.0808 151.1353 48° Northeast  Level FlightAware Approximate
11:29AM 40.1755 151.2727 48° Northeast  Level FlightAware Approximate
11:30AM 40.2701 151.4105 48° Northeast  Level FlightAware Approximate
11:31AM 40.3644 151.5487 48° Northeast  Level FlightAware Approximate
11:32AM 40.4587 151.6873 48° Northeast  Level FlightAware Approximate
11:33AM 40.5527 151.8262 48° Northeast  Level FlightAware Approximate
11:34AM 40.6466 151.9656 48° Northeast  Level FlightAware Approximate
11:35AM 40.7403 152.1053 48° Northeast  Level FlightAware Approximate
11:36AM 40.8339 152.2454 49° Northeast  Level FlightAware Approximate
11:37AM 40.9272 152.3860 49° Northeast  Level FlightAware Approximate
11:38AM 41.0205 152.5269 49° Northeast  Level FlightAware Approximate
11:39AM 41.1135 152.6682 49° Northeast  Level FlightAware Approximate
11:40AM 41.2064 152.8099 49° Northeast  Level FlightAware Approximate
11:41AM 41.2990 152.9521 49° Northeast  Level FlightAware Approximate
11:42AM 41.3916 153.0946 49° Northeast  Level FlightAware Approximate
11:43AM 41.4839 153.2375 49° Northeast  Level FlightAware Approximate
11:44AM 41.5761 153.3809 49° Northeast  Level FlightAware Approximate
11:45AM 41.6680 153.5246 49° Northeast  Level FlightAware Approximate
11:46AM 41.7598 153.6688 49° Northeast  Level FlightAware Approximate
11:47AM 41.8515 153.8134 50° Northeast  Level FlightAware Approximate
11:48AM 41.9426 153.9587 50° Northeast  Level FlightAware Approximate
11:49AM 42.0328 154.1053 50° Northeast  Level FlightAware Approximate
11:50AM 42.1228 154.2523 50° Northeast  Level FlightAware Approximate
11:51AM 42.2127 154.3997 51° Northeast  Level FlightAware Approximate
11:52AM 42.3023 154.5475 51° Northeast  Level FlightAware Approximate
11:53AM 42.3918 154.6958 51° Northeast  Level FlightAware Approximate
11:54AM 42.4810 154.8445 51° Northeast  Level FlightAware Approximate
11:55AM 42.5701 154.9936 51° Northeast  Level FlightAware Approximate
11:56AM 42.6590 155.1431 51° Northeast  Level FlightAware Approximate
11:57AM 42.7477 155.2931 51° Northeast  Level FlightAware Approximate
11:58AM 42.8362 155.4435 51° Northeast  Level FlightAware Approximate
11:59AM 42.9244 155.5943 51° Northeast  Level FlightAware Approximate
12:00PM 43.0126 155.7455 51° Northeast  Level FlightAware Approximate
12:01PM 43.1005 155.8971 52° Northeast  Level FlightAware Approximate
12:02PM 43.1882 156.0492 52° Northeast  Level FlightAware Approximate
12:03PM 43.2757 156.2017 52° Northeast  Level FlightAware Approximate
12:04PM 43.3631 156.3547 52° Northeast  Level FlightAware Approximate
12:05PM 43.4502 156.5081 52° Northeast  Level FlightAware Approximate
12:06PM 43.5375 156.6615 52° Northeast  Level FlightAware Approximate
12:07PM 43.6249 156.8150 52° Northeast  Level FlightAware Approximate
12:08PM 43.7121 156.9690 52° Northeast  Level FlightAware Approximate
12:09PM 43.7991 157.1234 52° Northeast  Level FlightAware Approximate
12:10PM 43.8858 157.2783 52° Northeast  Level FlightAware Approximate
12:11PM 43.9724 157.4337 52° Northeast  Level FlightAware Approximate
12:12PM 44.0578 157.5904 53° Northeast  Level FlightAware Approximate
12:13PM 44.1426 157.7481 53° Northeast  Level FlightAware Approximate
12:14PM 44.2272 157.9062 53° Northeast  Level FlightAware Approximate
12:15PM 44.3116 158.0648 53° Northeast  Level FlightAware Approximate
12:16PM 44.3957 158.2238 53° Northeast  Level FlightAware Approximate
12:17PM 44.4796 158.3833 54° Northeast  Level FlightAware Approximate
12:18PM 44.5633 158.5432 54° Northeast  Level FlightAware Approximate
12:19PM 44.6468 158.7036 54° Northeast  Level FlightAware Approximate
12:20PM 44.7300 158.8645 54° Northeast  Level FlightAware Approximate
12:21PM 44.8130 159.0258 54° Northeast  Level FlightAware Approximate
12:22PM 44.8958 159.1876 54° Northeast  Level FlightAware Approximate
12:23PM 44.9784 159.3499 54° Northeast  Level FlightAware Approximate
12:24PM 45.0607 159.5126 54° Northeast  Level FlightAware Approximate
12:25PM 45.1428 159.6758 54° Northeast  Level FlightAware Approximate
12:26PM 45.2246 159.8395 55° Northeast  Level FlightAware Approximate
12:27PM 45.3063 160.0036 55° Northeast  Level FlightAware Approximate
12:28PM 45.3876 160.1682 55° Northeast  Level FlightAware Approximate
12:29PM 45.4688 160.3333 55° Northeast  Level FlightAware Approximate
12:29PM 46.4167 162.3167 60° Northeast 540 621 36,000  Level Anchorage Center
12:30PM 45.5497 160.4989 55° Northeast  Level FlightAware Approximate
12:31PM 45.6304 160.6649 55° Northeast  Level FlightAware Approximate
12:32PM 45.7108 160.8314 55° Northeast  Level FlightAware Approximate
12:32PM 46.6667 162.9500 61° Northeast 536 617 36,000  Level Anchorage Center
12:33PM 45.7910 160.9984 55° Northeast  Level FlightAware Approximate
12:34PM 45.8710 161.1659 56° Northeast  Level FlightAware Approximate
12:35PM 45.9507 161.3339 56° Northeast  Level FlightAware Approximate
12:36PM 46.9274 163.6416 61° Northeast 540 621 36,000  Level FlightAware Transoceanic
12:37PM 46.9991 163.8330 61° Northeast 540 621 36,000  Level FlightAware Transoceanic
12:38PM 47.0704 164.0248 61° Northeast 540 621 36,000  Level FlightAware Transoceanic
12:39PM 47.1078 164.1199 62° Northeast 536 617 36,000  Level FlightAware Transoceanic
12:40PM 47.1802 164.3167 62° Northeast 536 617 36,000  Level FlightAware Transoceanic
12:41PM 47.2522 164.5141 62° Northeast 536 617 36,000  Level FlightAware Transoceanic
12:42PM 47.3239 164.7121 62° Northeast 536 617 36,000  Level FlightAware Transoceanic
12:42PM 47.3500 164.8000 62° Northeast 536 617 36,000  Level Anchorage Center
12:43PM 47.3952 164.9105 62° Northeast 536 617 36,000  Level FlightAware Transoceanic
12:44PM 47.4662 165.1095 62° Northeast 536 617 36,000  Level FlightAware Transoceanic
12:45PM 47.5369 165.3091 62° Northeast 536 617 36,000  Level FlightAware Transoceanic
12:46PM 47.6072 165.5091 63° Northeast 536 617 36,000  Level FlightAware Transoceanic
12:47PM 47.6771 165.7097 63° Northeast 536 617 36,000  Level FlightAware Transoceanic
12:48PM 47.7467 165.9109 63° Northeast 536 617 36,000  Level FlightAware Transoceanic
12:49PM 47.8160 166.1126 63° Northeast 536 617 36,000  Level FlightAware Transoceanic
12:50PM 47.8849 166.3148 63° Northeast 536 617 36,000  Level FlightAware Transoceanic
12:51PM 47.9670 166.5670 63° Northeast 536 617 36,000  Level FlightAware Transoceanic
12:52PM 48.0339 166.7659 63° Northeast 536 617 36,000  Level FlightAware Transoceanic
12:52PM 48.0000 166.6667 63° Northeast 535 616 36,000  Level Anchorage Center
12:53PM 48.1004 166.9653 64° Northeast 536 617 36,000  Level FlightAware Transoceanic
12:54PM 48.1666 167.1653 64° Northeast 536 617 36,000  Level FlightAware Transoceanic
12:55PM 48.2324 167.3657 64° Northeast 536 617 36,000  Level FlightAware Transoceanic
12:56PM 48.2979 167.5667 64° Northeast 536 617 36,000  Level FlightAware Transoceanic
12:57PM 48.3630 167.7682 64° Northeast 536 617 36,000  Level FlightAware Transoceanic
12:58PM 48.4147 167.9299 64° Northeast 535 616 36,000  Level FlightAware Transoceanic
12:59PM 48.4824 168.1424 64° Northeast 535 616 36,000  Level FlightAware Transoceanic
01:00PM 48.5498 168.3555 65° Northeast 535 616 36,000  Level FlightAware Transoceanic
01:01PM 48.6168 168.5691 65° Northeast 535 616 36,000  Level FlightAware Transoceanic
01:02PM 48.6833 168.7833 66° East 535 616 36,000  Level FlightAware Transoceanic
01:02PM 48.6167 168.5667 65° Northeast 525 604 36,000  Level Anchorage Center
01:03PM 48.7401 168.9750 66° East 535 616 36,000  Level FlightAware Transoceanic
01:03PM 48.6833 168.7833 66° East 519 597 36,000  Level Anchorage Center
01:04PM 48.7966 169.1671 66° East 535 616 36,000  Level FlightAware Transoceanic
01:05PM 48.8527 169.3597 66° East 535 616 36,000  Level FlightAware Transoceanic
01:06PM 48.9085 169.5527 66° East 535 616 36,000  Level FlightAware Transoceanic
01:07PM 48.9640 169.7461 66° East 535 616 36,000  Level FlightAware Transoceanic
01:08PM 49.0191 169.9399 67° East 525 604 36,000  Level FlightAware Transoceanic
01:09PM 49.0849 170.1731 67° East 519 597 36,000  Level FlightAware Transoceanic
01:10PM 49.1409 170.3734 67° East 519 597 36,000  Level FlightAware Transoceanic
01:11PM 49.1965 170.5742 67° East 519 597 36,000  Level FlightAware Transoceanic
01:11PM 49.1667 170.5000 67° East 516 594 36,000  Level Anchorage Center
01:12PM 49.2518 170.7755 67° East 519 597 36,000  Level FlightAware Transoceanic
01:13PM 49.3068 170.9772 67° East 519 597 36,000  Level FlightAware Transoceanic
01:14PM 49.3614 171.1794 68° East 519 597 36,000  Level FlightAware Transoceanic
01:15PM 49.4156 171.3820 68° East 519 597 36,000  Level FlightAware Transoceanic
01:16PM 49.4695 171.5850 68° East 519 597 36,000  Level FlightAware Transoceanic
01:17PM 49.5007 171.7305 68° East 516 594 36,000  Level FlightAware Transoceanic
01:18PM 49.5551 171.9371 68° East 516 594 36,000  Level FlightAware Transoceanic
01:19PM 49.6091 172.1443 68° East 516 594 36,000  Level FlightAware Transoceanic
01:20PM 49.6627 172.3519 68° East 516 594 36,000  Level FlightAware Transoceanic
01:20PM 49.6833 172.4333 68° East 511 588 36,000  Level Anchorage Center
01:21PM 49.7160 172.5600 68° East 516 594 36,000  Level FlightAware Transoceanic
01:22PM 49.7689 172.7685 69° East 516 594 36,000  Level FlightAware Transoceanic
01:23PM 49.8214 172.9775 69° East 516 594 36,000  Level FlightAware Transoceanic
01:24PM 49.8736 173.1869 69° East 516 594 36,000  Level FlightAware Transoceanic
01:25PM 49.9254 173.3968 69° East 516 594 36,000  Level FlightAware Transoceanic
01:26PM 49.9394 173.4549 69° East 511 588 36,000  Level FlightAware Transoceanic
01:27PM 49.9895 173.6605 69° East 511 588 36,000  Level FlightAware Transoceanic
01:28PM 50.0393 173.8665 69° East 511 588 36,000  Level FlightAware Transoceanic
01:29PM 50.0887 174.0730 70° East 511 588 36,000  Level FlightAware Transoceanic
01:30PM 50.1377 174.2799 70° East 511 588 36,000  Level FlightAware Transoceanic
01:30PM 50.1667 174.3833 70° East 497 572 36,000  Level Anchorage Center
01:31PM 50.1864 174.4872 70° East 511 588 36,000  Level FlightAware Transoceanic
01:32PM 50.2347 174.6949 70° East 511 588 36,000  Level FlightAware Transoceanic
01:33PM 50.2826 174.9030 70° East 511 588 36,000  Level FlightAware Transoceanic
01:34PM 50.3302 175.1116 70° East 511 588 36,000  Level FlightAware Transoceanic
01:35PM 50.3774 175.3206 71° East 511 588 36,000  Level FlightAware Transoceanic
01:36PM 50.4311 175.5562 71° East 497 572 36,000  Level FlightAware Transoceanic
01:37PM 50.4741 175.7529 71° East 497 572 36,000  Level FlightAware Transoceanic
01:38PM 50.5167 175.9500 71° East 497 572 36,000  Level FlightAware Transoceanic
01:38PM 50.5167 175.9500 71° East 483 556 36,000  Level Anchorage Center
01:39PM 50.5603 176.1486 71° East 497 572 36,000  Level FlightAware Transoceanic
01:39PM 50.6000 176.3000 71° East 479 551 36,000  Level Anchorage Center
01:40PM 50.6036 176.3475 71° East 497 572 36,000  Level FlightAware Transoceanic
01:41PM 50.6466 176.5469 71° East 497 572 36,000  Level FlightAware Transoceanic
01:42PM 50.6892 176.7466 71° East 497 572 36,000  Level FlightAware Transoceanic
01:43PM 50.7315 176.9466 72° East 497 572 36,000  Level FlightAware Transoceanic
01:44PM 50.7734 177.1470 72° East 483 556 36,000  Level FlightAware Transoceanic
01:45PM 50.8150 177.3478 72° East 483 556 36,000  Level FlightAware Transoceanic
01:46PM 50.8537 177.5095 72° East 479 551 36,000  Level FlightAware Transoceanic
01:47PM 50.8947 177.7123 72° East 479 551 36,000  Level FlightAware Transoceanic
01:48PM 50.9355 177.9155 72° East 479 551 36,000  Level FlightAware Transoceanic
01:49PM 50.9758 178.1190 73° East 479 551 36,000  Level FlightAware Transoceanic
01:49PM 51.0000 178.2333 73° East 482 555 36,000  Level Anchorage Center
01:50PM 51.0158 178.3230 73° East 479 551 36,000  Level FlightAware Transoceanic
01:51PM 51.0555 178.5272 73° East 479 551 36,000  Level FlightAware Transoceanic
01:52PM 51.0947 178.7318 73° East 479 551 36,000  Level FlightAware Transoceanic
01:53PM 51.1337 178.9368 73° East 479 551 36,000  Level FlightAware Transoceanic
01:54PM 51.1722 179.1420 73° East 479 551 36,000  Level FlightAware Transoceanic
01:55PM 51.2279 179.4355 74° East 482 555 36,000  Level FlightAware Transoceanic
01:56PM 51.2647 179.6369 74° East 482 555 36,000  Level FlightAware Transoceanic
01:57PM 51.3012 179.8388 74° East 482 555 36,000  Level FlightAware Transoceanic
01:58PM 51.3372 -179.9591 74° East 482 555 36,000  Level FlightAware Transoceanic
01:59PM 51.3730 -179.7566 74° East 482 555 36,000  Level FlightAware Transoceanic
01:59PM 51.3667 -179.8333 74° East 464 534 36,000  Level Anchorage Center
02:00PM 51.4084 -179.5539 74° East 482 555 36,000  Level FlightAware Transoceanic
02:01PM 51.4434 -179.3508 75° East 482 555 36,000  Level FlightAware Transoceanic
02:02PM 51.4781 -179.1474 75° East 482 555 36,000  Level FlightAware Transoceanic
02:03PM 51.5125 -178.9437 75° East 482 555 36,000  Level FlightAware Transoceanic
02:04PM 51.5464 -178.7397 75° East 482 555 36,000  Level FlightAware Transoceanic
02:05PM 51.5640 -178.6603 75° East 464 534 36,000  Level FlightAware Transoceanic
02:06PM 51.5958 -178.4638 76° East 464 534 36,000  Level FlightAware Transoceanic
02:07PM 51.6272 -178.2670 76° East 464 534 36,000  Level FlightAware Transoceanic
02:08PM 51.6583 -178.0700 76° East 464 534 36,000  Level FlightAware Transoceanic
02:08PM 51.6833 -177.9333 76° East 454 522 36,000  Level Anchorage Center
02:09PM 51.6891 -177.8727 76° East 464 534 36,000  Level FlightAware Transoceanic
02:10PM 51.7195 -177.6751 76° East 464 534 36,000  Level FlightAware Transoceanic
02:11PM 51.7496 -177.4773 76° East 464 534 36,000  Level FlightAware Transoceanic
02:12PM 51.7794 -177.2792 76° East 464 534 36,000  Level FlightAware Transoceanic
02:13PM 51.8088 -177.0808 77° East 464 534 36,000  Level FlightAware Transoceanic
02:14PM 51.8379 -176.8822 77° East 464 534 36,000  Level FlightAware Transoceanic
02:15PM 51.8667 -176.6833 86° East 454 522 36,000  Level FlightAware Transoceanic
02:15PM 51.8667 -176.6833 86° East 470 541 36,000  Level Anchorage Center
02:16PM 51.8769 -176.4686 86° East 454 522 36,000  Level FlightAware Transoceanic
02:17PM 51.8867 -176.2538 86° East 454 522 36,000  Level FlightAware Transoceanic
02:18PM 51.8961 -176.0390 86° East 454 522 36,000  Level FlightAware Transoceanic
02:18PM 51.9000 -176.0167 86° East 476 548 36,000  Level Anchorage Center
02:19PM 51.9051 -175.8240 86° East 454 522 36,000  Level FlightAware Transoceanic
02:20PM 51.9137 -175.6089 86° East 454 522 36,000  Level FlightAware Transoceanic
02:21PM 51.9220 -175.3938 87° East 454 522 36,000  Level FlightAware Transoceanic
02:22PM 51.9281 -175.2256 87° East 470 541 36,000  Level FlightAware Transoceanic
02:23PM 51.9355 -175.0171 87° East 470 541 36,000  Level FlightAware Transoceanic
02:24PM 51.9472 -174.7303 87° East 476 548 36,000  Level FlightAware Transoceanic
02:25PM 51.9537 -174.5157 87° East 476 548 36,000  Level FlightAware Transoceanic
02:26PM 51.9599 -174.3010 87° East 476 548 36,000  Level FlightAware Transoceanic
02:27PM 51.9656 -174.0862 88° East 476 548 36,000  Level FlightAware Transoceanic
02:27PM 51.9667 -173.9667 88° East 491 565 36,000  Level Anchorage Center
02:28PM 51.9709 -173.8714 88° East 476 548 36,000  Level FlightAware Transoceanic
02:29PM 51.9759 -173.6565 88° East 476 548 36,000  Level FlightAware Transoceanic
02:30PM 51.9804 -173.4416 88° East 476 548 36,000  Level FlightAware Transoceanic
02:31PM 51.9846 -173.2267 88° East 476 548 36,000  Level FlightAware Transoceanic
02:32PM 51.9883 -173.0117 88° East 476 548 36,000  Level FlightAware Transoceanic
02:33PM 51.9917 -172.7967 89° East 476 548 36,000  Level FlightAware Transoceanic
02:34PM 51.9926 -172.6452 89° East 491 565 36,000  Level FlightAware Transoceanic
02:35PM 51.9955 -172.4249 89° East 491 565 36,000  Level FlightAware Transoceanic
02:36PM 51.9979 -172.2045 89° East 491 565 36,000  Level FlightAware Transoceanic
02:37PM 52.0000 -171.9841 89° East 491 565 36,000  Level FlightAware Transoceanic
02:37PM 52.0000 -171.8667 89° East 479 551 36,000  Level Anchorage Center
02:38PM 52.0016 -171.7636 89° East 491 565 36,000  Level FlightAware Transoceanic
02:39PM 52.0029 -171.5432 90° East 491 565 36,000  Level FlightAware Transoceanic
02:40PM 52.0037 -171.3227 90° East 491 565 36,000  Level FlightAware Transoceanic
02:41PM 52.0041 -171.1023 90° East 491 565 36,000  Level FlightAware Transoceanic
02:42PM 52.0041 -170.8818 90° East 491 565 36,000  Level FlightAware Transoceanic
02:43PM 52.0033 -170.6222 90° East 479 551 36,000  Level FlightAware Transoceanic
02:44PM 52.0025 -170.4148 90° East 479 551 36,000  Level FlightAware Transoceanic
02:45PM 52.0015 -170.2074 91° East 479 551 36,000  Level FlightAware Transoceanic
02:46PM 52.0000 -170.0000 86° East 479 551 36,000  Level FlightAware Transoceanic
02:47PM 52.0088 -169.7879 86° East 479 551 36,000  Level FlightAware Transoceanic
02:48PM 52.0172 -169.5756 86° East 479 551 36,000  Level FlightAware Transoceanic
02:48PM 52.0000 -170.0000 86° East 484 557 36,000  Level Anchorage Center
02:49PM 52.0253 -169.3634 87° East 479 551 36,000  Level FlightAware Transoceanic
02:50PM 52.0330 -169.1510 87° East 479 551 36,000  Level FlightAware Transoceanic
02:50PM 52.0333 -169.1667 87° East 476 548 36,000  Level Anchorage Center
02:51PM 52.0402 -168.9385 87° East 479 551 36,000  Level FlightAware Transoceanic
02:52PM 52.0471 -168.7260 87° East 479 551 36,000  Level FlightAware Transoceanic
02:53PM 52.0537 -168.5134 87° East 479 551 36,000  Level FlightAware Transoceanic
02:54PM 52.0608 -168.2638 87° East 484 557 36,000  Level FlightAware Transoceanic
02:55PM 52.0667 -168.0465 88° East 484 557 36,000  Level FlightAware Transoceanic
02:56PM 52.0714 -167.8889 88° East 476 548 36,000  Level FlightAware Transoceanic
02:56PM 52.0667 -167.8167 88° East 473 544 36,000  Level Anchorage Center
02:57PM 52.0764 -167.6757 88° East 476 548 36,000  Level FlightAware Transoceanic
02:58PM 52.0810 -167.4625 88° East 476 548 36,000  Level FlightAware Transoceanic
02:59PM 52.0853 -167.2493 88° East 476 548 36,000  Level FlightAware Transoceanic
03:00PM 52.0891 -167.0360 88° East 476 548 36,000  Level FlightAware Transoceanic
03:01PM 52.0926 -166.8227 89° East 476 548 36,000  Level FlightAware Transoceanic
03:02PM 52.0956 -166.6093 89° East 476 548 36,000  Level FlightAware Transoceanic
03:03PM 52.0915 -166.5137 89° East 473 544 36,000  Level FlightAware Transoceanic
03:04PM 52.0942 -166.2964 89° East 473 544 36,000  Level FlightAware Transoceanic
03:05PM 52.0966 -166.0791 89° East 473 544 36,000  Level FlightAware Transoceanic
03:06PM 52.0985 -165.8617 89° East 473 544 36,000  Level FlightAware Transoceanic
03:07PM 52.1001 -165.6444 89° East 473 544 36,000  Level FlightAware Transoceanic
03:08PM 52.1012 -165.4270 90° East 473 544 36,000  Level FlightAware Transoceanic
03:09PM 52.1020 -165.2096 90° East 473 544 36,000  Level FlightAware Transoceanic
03:10PM 52.1023 -164.9923 90° East 473 544 36,000  Level FlightAware Transoceanic
03:11PM 52.1022 -164.7749 90° East 473 544 36,000  Level FlightAware Transoceanic
03:12PM 52.1018 -164.5575 90° East 473 544 36,000  Level FlightAware Transoceanic
03:13PM 52.1009 -164.3401 90° East 473 544 36,000  Level FlightAware Transoceanic
03:14PM 52.0997 -164.1228 91° East 473 544 36,000  Level FlightAware Transoceanic
03:15PM 52.0980 -163.9054 91° East 473 544 36,000  Level FlightAware Transoceanic
03:16PM 52.0960 -163.6881 91° East 473 544 36,000  Level FlightAware Transoceanic
03:17PM 52.0935 -163.4708 91° East 473 544 36,000  Level FlightAware Transoceanic
03:18PM 52.0906 -163.2535 91° East 473 544 36,000  Level FlightAware Transoceanic
03:18PM 52.0833 -163.1333 91° East 481 554 36,000  Level Oakland Oceanic (ODAPS)
03:19PM 52.0874 -163.0362 91° East 473 544 36,000  Level FlightAware Transoceanic
03:20PM 52.0838 -162.8190 92° East 473 544 36,000  Level FlightAware Transoceanic
03:21PM 52.0797 -162.6018 92° East 473 544 36,000  Level FlightAware Transoceanic
03:22PM 52.0752 -162.3847 92° East 473 544 36,000  Level FlightAware Transoceanic
03:23PM 52.0704 -162.1676 92° East 473 544 36,000  Level FlightAware Transoceanic
03:24PM 52.0652 -161.9506 92° East 473 544 36,000  Level FlightAware Transoceanic
03:25PM 52.0578 -161.7891 92° East 481 554 36,000  Level FlightAware Transoceanic
03:26PM 52.0521 -161.5652 92° East 481 554 36,000  Level FlightAware Transoceanic
03:27PM 52.0459 -161.3414 93° East 481 554 36,000  Level FlightAware Transoceanic
03:28PM 52.0393 -161.1176 93° East 481 554 36,000  Level FlightAware Transoceanic
03:29PM 52.0323 -160.8940 93° East 481 554 36,000  Level FlightAware Transoceanic
03:30PM 52.0248 -160.6703 93° East 481 554 36,000  Level FlightAware Transoceanic
03:31PM 52.0170 -160.4468 93° East 481 554 36,000  Level FlightAware Transoceanic
03:32PM 52.0087 -160.2234 94° East 481 554 36,000  Level FlightAware Transoceanic
03:32PM 52.0000 -160.1500 90° East 485 558 36,000  Level Oakland Oceanic (ODAPS)
03:33PM 52.0000 -160.0000 86° East 481 554 36,000  Level FlightAware Transoceanic
03:33PM 52.0000 -160.0000 86° East 488 562 36,000  Level Oakland Oceanic (ODAPS)
03:34PM 52.0092 -159.7784 86° East 481 554 36,000  Level FlightAware Transoceanic
03:35PM 52.0180 -159.5568 86° East 481 554 36,000  Level FlightAware Transoceanic
03:36PM 52.0263 -159.3350 87° East 481 554 36,000  Level FlightAware Transoceanic
03:37PM 52.0343 -159.1132 87° East 481 554 36,000  Level FlightAware Transoceanic
03:38PM 52.0418 -158.8913 87° East 485 558 36,000  Level FlightAware Transoceanic
03:39PM 52.0480 -158.6983 87° East 488 562 36,000  Level FlightAware Transoceanic
03:40PM 52.0546 -158.4811 87° East 488 562 36,000  Level FlightAware Transoceanic
03:41PM 52.0608 -158.2638 87° East 488 562 36,000  Level FlightAware Transoceanic
03:42PM 52.0667 -158.0465 88° East 488 562 36,000  Level FlightAware Transoceanic
03:43PM 52.0720 -157.8291 88° East 488 562 36,000  Level FlightAware Transoceanic
03:44PM 52.0771 -157.6117 88° East 488 562 36,000  Level FlightAware Transoceanic
03:45PM 52.0817 -157.3942 88° East 488 562 36,000  Level FlightAware Transoceanic
03:46PM 52.0859 -157.1767 88° East 488 562 36,000 600 Level FlightAware Transoceanic
03:46PM 52.0833 -157.1500 88° East 485 558 37,000  Climbing Oakland Oceanic (ODAPS)
03:47PM 52.0897 -156.9591 88° East 488 562 36,000 -780 Descending FlightAware Transoceanic
03:48PM 52.0931 -156.7415 89° East 488 562 36,000  Level FlightAware Transoceanic
03:49PM 52.0961 -156.5239 89° East 488 562 36,000  Level FlightAware Transoceanic
03:50PM 52.0987 -156.3063 89° East 488 562 36,000  Level FlightAware Transoceanic
03:51PM 52.1009 -156.0886 89° East 488 562 36,000  Level FlightAware Transoceanic
03:52PM 52.1027 -155.8709 89° East 488 562 36,000 480 Level FlightAware Transoceanic
03:53PM 52.1018 -155.6322 89° East 485 558 37,000 480 Climbing FlightAware Transoceanic
03:54PM 52.1029 -155.4153 90° East 485 558 37,000  Level FlightAware Transoceanic
03:55PM 52.1035 -155.1984 90° East 485 558 37,000  Level FlightAware Transoceanic
03:56PM 52.1038 -154.9815 90° East 485 558 37,000  Level FlightAware Transoceanic
03:57PM 52.1037 -154.7646 90° East 485 558 37,000  Level FlightAware Transoceanic
03:58PM 52.1031 -154.5476 90° East 485 558 37,000  Level FlightAware Transoceanic
03:59PM 52.1022 -154.3307 90° East 485 558 37,000  Level FlightAware Transoceanic
04:00PM 52.1009 -154.1138 91° East 485 558 37,000  Level FlightAware Transoceanic
04:00PM 52.1000 -154.2000 91° East 487 560 37,000  Level Oakland Oceanic (ODAPS)
04:01PM 52.0991 -153.8970 91° East 485 558 37,000  Level FlightAware Transoceanic
04:02PM 52.0970 -153.6801 91° East 485 558 37,000  Level FlightAware Transoceanic
04:03PM 52.0945 -153.4633 91° East 485 558 37,000  Level FlightAware Transoceanic
04:04PM 52.0915 -153.2464 91° East 485 558 37,000  Level FlightAware Transoceanic
04:05PM 52.0882 -153.0296 92° East 485 558 37,000  Level FlightAware Transoceanic
04:06PM 52.0845 -152.8129 92° East 485 558 37,000  Level FlightAware Transoceanic
04:07PM 52.0805 -152.6506 92° East 487 560 37,000  Level FlightAware Transoceanic
04:08PM 52.0761 -152.4294 92° East 487 560 37,000  Level FlightAware Transoceanic
04:09PM 52.0713 -152.2082 92° East 487 560 37,000  Level FlightAware Transoceanic
04:10PM 52.0660 -151.9871 92° East 487 560 37,000  Level FlightAware Transoceanic
04:11PM 52.0603 -151.7660 92° East 487 560 37,000  Level FlightAware Transoceanic
04:12PM 52.0542 -151.5450 93° East 487 560 37,000  Level FlightAware Transoceanic
04:13PM 52.0477 -151.3241 93° East 487 560 37,000  Level FlightAware Transoceanic
04:14PM 52.0408 -151.1032 93° East 487 560 37,000  Level FlightAware Transoceanic
04:14PM 52.0500 -151.1833 93° East 491 565 37,000  Level Oakland Oceanic (ODAPS)
04:15PM 52.0335 -150.8824 93° East 487 560 37,000  Level FlightAware Transoceanic
04:16PM 52.0257 -150.6617 93° East 487 560 37,000  Level FlightAware Transoceanic
04:17PM 52.0176 -150.4411 94° East 487 560 37,000  Level FlightAware Transoceanic
04:18PM 52.0090 -150.2205 94° East 487 560 37,000  Level FlightAware Transoceanic
04:19PM 52.0000 -150.0000 95° East 487 560 37,000  Level FlightAware Transoceanic
04:20PM 52.0000 -150.0000 95° East 491 565 37,000  Level FlightAware Transoceanic
04:20PM 52.0000 -150.0000 95° East 499 574 37,000  Level Oakland Oceanic (ODAPS)
04:21PM 51.9868 -149.7685 95° East 491 565 37,000  Level FlightAware Transoceanic
04:22PM 51.9732 -149.5371 96° East 491 565 37,000  Level FlightAware Transoceanic
04:23PM 51.9591 -149.3058 96° East 491 565 37,000  Level FlightAware Transoceanic
04:24PM 51.9446 -149.0747 96° East 491 565 37,000  Level FlightAware Transoceanic
04:25PM 51.9296 -148.8438 96° East 491 565 37,000  Level FlightAware Transoceanic
04:26PM 51.9163 -148.6437 96° East 499 574 37,000  Level FlightAware Transoceanic
04:27PM 51.9008 -148.4182 96° East 499 574 37,000  Level FlightAware Transoceanic
04:28PM 51.8849 -148.1928 97° East 499 574 37,000  Level FlightAware Transoceanic
04:28PM 51.8833 -148.1667 97° East 502 578 37,000  Level Oakland Oceanic (ODAPS)
04:29PM 51.8686 -147.9676 97° East 499 574 37,000  Level FlightAware Transoceanic
04:30PM 51.8518 -147.7425 97° East 499 574 37,000  Level FlightAware Transoceanic
04:31PM 51.8346 -147.5177 97° East 499 574 37,000  Level FlightAware Transoceanic
04:32PM 51.8170 -147.2930 97° East 499 574 37,000  Level FlightAware Transoceanic
04:33PM 51.7990 -147.0684 97° East 499 574 37,000  Level FlightAware Transoceanic
04:34PM 51.7789 -146.8223 98° East 502 578 37,000  Level FlightAware Transoceanic
04:35PM 51.7601 -146.5988 98° East 502 578 37,000  Level FlightAware Transoceanic
04:36PM 51.7407 -146.3756 98° East 502 578 37,000  Level FlightAware Transoceanic
04:37PM 51.7210 -146.1525 98° East 502 578 37,000  Level FlightAware Transoceanic
04:38PM 51.7009 -145.9296 98° East 502 578 37,000  Level FlightAware Transoceanic
04:39PM 51.6803 -145.7070 99° East 502 578 37,000  Level FlightAware Transoceanic
04:40PM 51.6593 -145.4845 99° East 502 578 37,000  Level FlightAware Transoceanic
04:41PM 51.6379 -145.2623 99° East 502 578 37,000  Level FlightAware Transoceanic
04:42PM 51.6160 -145.0402 99° East 502 578 37,000  Level FlightAware Transoceanic
04:42PM 51.6167 -145.1167 99° East 513 590 37,000  Level Oakland Oceanic (ODAPS)
04:43PM 51.5938 -144.8184 99° East 502 578 37,000  Level FlightAware Transoceanic
04:44PM 51.5711 -144.5968 99° East 502 578 37,000  Level FlightAware Transoceanic
04:45PM 51.5480 -144.3754 100° East 502 578 37,000  Level FlightAware Transoceanic
04:46PM 51.5245 -144.1543 100° East 502 578 37,000  Level FlightAware Transoceanic
04:47PM 51.5006 -143.9333 100° East 502 578 37,000  Level FlightAware Transoceanic
04:48PM 51.4774 -143.7690 100° East 513 590 37,000  Level FlightAware Transoceanic
04:49PM 51.4527 -143.5452 100° East 513 590 37,000  Level FlightAware Transoceanic
04:50PM 51.4275 -143.3216 100° East 513 590 37,000  Level FlightAware Transoceanic
04:51PM 51.4020 -143.0983 100° East 513 590 37,000  Level FlightAware Transoceanic
04:52PM 51.3760 -142.8752 101° East 513 590 37,000  Level FlightAware Transoceanic
04:53PM 51.3496 -142.6524 101° East 513 590 37,000  Level FlightAware Transoceanic
04:54PM 51.3227 -142.4299 101° East 513 590 37,000  Level FlightAware Transoceanic
04:55PM 51.2955 -142.2076 101° East 513 590 37,000  Level FlightAware Transoceanic
04:56PM 51.2678 -141.9856 101° East 513 590 37,000  Level FlightAware Transoceanic
04:56PM 51.2667 -142.0167 101° East 522 601 37,000  Level Oakland Oceanic (ODAPS)
04:57PM 51.2397 -141.7639 102° East 513 590 37,000  Level FlightAware Transoceanic
04:58PM 51.2112 -141.5424 102° East 513 590 37,000  Level FlightAware Transoceanic
04:59PM 51.1823 -141.3212 102° East 513 590 37,000  Level FlightAware Transoceanic
05:00PM 51.1529 -141.1003 102° East 513 590 37,000  Level FlightAware Transoceanic
05:01PM 51.1232 -140.8796 102° East 513 590 37,000  Level FlightAware Transoceanic
05:02PM 51.0927 -140.6696 102° East 522 601 37,000  Level FlightAware Transoceanic
05:03PM 51.0622 -140.4461 102° East 522 601 37,000  Level FlightAware Transoceanic
05:04PM 51.0313 -140.2229 103° East 522 601 37,000  Level FlightAware Transoceanic
05:05PM 51.0000 -140.0000 115° Southeast 522 601 37,000  Level FlightAware Transoceanic
05:05PM 51.0000 -140.0000 115° Southeast 526 605 37,000  Level Oakland Oceanic (ODAPS)
05:06PM 50.9360 -139.7863 116° Southeast 522 601 37,000  Level FlightAware Transoceanic
05:07PM 50.8716 -139.5732 116° Southeast 522 601 37,000  Level FlightAware Transoceanic
05:08PM 50.8069 -139.3607 116° Southeast 522 601 37,000  Level FlightAware Transoceanic
05:09PM 50.7417 -139.1488 116° Southeast 522 601 37,000  Level FlightAware Transoceanic
05:09PM 50.6833 -138.9833 116° Southeast 530 610 37,000  Level Oakland Oceanic (ODAPS)
05:10PM 50.6762 -138.9374 116° Southeast 522 601 37,000  Level FlightAware Transoceanic
05:11PM 50.6195 -138.7561 116° Southeast 526 605 37,000  Level FlightAware Transoceanic
05:12PM 50.5548 -138.5507 116° Southeast 526 605 37,000  Level FlightAware Transoceanic
05:13PM 50.4898 -138.3459 117° Southeast 526 605 37,000  Level FlightAware Transoceanic
05:14PM 50.4244 -138.1417 117° Southeast 526 605 37,000  Level FlightAware Transoceanic
05:15PM 50.3586 -137.9381 117° Southeast 526 605 37,000  Level FlightAware Transoceanic
05:16PM 50.2815 -137.7198 117° Southeast 530 610 37,000  Level FlightAware Transoceanic
05:17PM 50.2132 -137.5113 117° Southeast 530 610 37,000  Level FlightAware Transoceanic
05:18PM 50.1445 -137.3035 117° Southeast 530 610 37,000  Level FlightAware Transoceanic
05:19PM 50.0755 -137.0961 118° Southeast 530 610 37,000  Level FlightAware Transoceanic
05:20PM 50.0061 -136.8895 118° Southeast 530 610 37,000  Level FlightAware Transoceanic
05:21PM 49.9363 -136.6833 118° Southeast 530 610 37,000  Level FlightAware Transoceanic
05:22PM 49.8661 -136.4778 118° Southeast 530 610 37,000  Level FlightAware Transoceanic
05:23PM 49.7956 -136.2729 118° Southeast 530 610 37,000  Level FlightAware Transoceanic
05:23PM 49.7667 -136.1833 118° Southeast 531 611 37,000  Level Oakland Oceanic (ODAPS)
05:24PM 49.7248 -136.0686 118° Southeast 530 610 37,000  Level FlightAware Transoceanic
05:25PM 49.6536 -135.8649 118° Southeast 530 610 37,000  Level FlightAware Transoceanic
05:26PM 49.5820 -135.6618 119° Southeast 530 610 37,000  Level FlightAware Transoceanic
05:27PM 49.5101 -135.4593 119° Southeast 530 610 37,000  Level FlightAware Transoceanic
05:28PM 49.4378 -135.2574 119° Southeast 530 610 37,000  Level FlightAware Transoceanic
05:29PM 49.3651 -135.0560 119° Southeast 530 610 37,000  Level FlightAware Transoceanic
05:30PM 49.2709 -134.7931 119° Southeast 531 611 37,000  Level FlightAware Transoceanic
05:31PM 49.1987 -134.5968 119° Southeast 531 611 37,000  Level FlightAware Transoceanic
05:32PM 49.1262 -134.4010 120° Southeast 531 611 37,000  Level FlightAware Transoceanic
05:33PM 49.0534 -134.2059 120° Southeast 531 611 37,000  Level FlightAware Transoceanic
05:34PM 48.9802 -134.0113 120° Southeast 531 611 37,000  Level FlightAware Transoceanic
05:35PM 48.9067 -133.8172 120° Southeast 531 611 37,000  Level FlightAware Transoceanic
05:36PM 48.8329 -133.6238 120° Southeast 531 611 37,000  Level FlightAware Transoceanic
05:37PM 48.7588 -133.4309 120° Southeast 531 611 37,000  Level FlightAware Transoceanic
05:37PM 48.7833 -133.4833 120° Southeast 530 610 37,000  Level Oakland Oceanic (ODAPS)
05:38PM 48.6843 -133.2386 120° Southeast 531 611 37,000  Level FlightAware Transoceanic
05:39PM 48.6095 -133.0469 121° Southeast 531 611 37,000  Level FlightAware Transoceanic
05:40PM 48.5344 -132.8557 121° Southeast 531 611 37,000  Level FlightAware Transoceanic
05:41PM 48.4590 -132.6651 121° Southeast 531 611 37,000  Level FlightAware Transoceanic
05:42PM 48.3833 -132.4751 121° Southeast 531 611 37,000  Level FlightAware Transoceanic
05:43PM 48.3072 -132.2856 121° Southeast 531 611 37,000  Level FlightAware Transoceanic
05:44PM 48.2887 -132.2355 121° Southeast 530 610 37,000  Level FlightAware Transoceanic
05:44PM 48.2167 -132.2333 104° East 570 656 37,000  Level Vancouver Center
05:45PM 48.2169 -132.0592 122° Southeast 530 610 37,000  Level FlightAware Transoceanic
05:45PM 48.1500 -132.0333 116° Southeast 500 575 37,000  Level Vancouver Center
05:46PM 48.1449 -131.8834 122° Southeast 530 610 37,000  Level FlightAware Transoceanic
05:46PM 48.0833 -131.8500 119° Southeast 530 610 37,000  Level Vancouver Center
05:47PM 48.0726 -131.7081 122° Southeast 530 610 37,000  Level FlightAware Transoceanic
05:47PM 48.0167 -131.6667 118° Southeast 540 621 37,000  Level Vancouver Center
05:48PM 48.0000 -131.5333 104° East 530 610 37,000  Level FlightAware Transoceanic
05:49PM 47.9640 -131.3114 104° East 530 610 37,000  Level FlightAware Transoceanic
05:49PM 47.9594 -131.2968 104° East  Level FlightAware Approximate
05:50PM 47.8667 -130.9667 104° East 560 644 37,000  Level Vancouver Center
05:51PM 47.8333 -130.7833 105° East 530 610 37,000  Level Vancouver Center
05:52PM 47.7833 -130.5667 109° East 540 621 37,000  Level Vancouver Center
05:53PM 47.7667 -130.3500 96° East 520 598 37,000  Level Vancouver Center
05:54PM 47.7333 -130.1333 103° East 520 598 37,000  Level Vancouver Center
05:55PM 47.6833 -129.9167 109° East 520 598 37,000  Level Vancouver Center
05:56PM 47.7000 -129.7667 152° Southeast 542 624 37,000  Level Oakland Oceanic (ODAPS)
05:57PM 47.4667 -129.6500 152° Southeast 550 633 37,000  Level Vancouver Center
05:58PM 47.3500 -129.5667 154° Southeast 540 621 37,000  Level Vancouver Center
05:59PM 47.2000 -129.4500 152° Southeast 550 633 37,000  Level Vancouver Center
06:00PM 47.0667 -129.3333 149° Southeast 540 621 37,000 -60 Level Vancouver Center
06:01PM 46.9500 -129.2500 154° Southeast 540 621 36,900 -60 Descending Vancouver Center
06:02PM 46.8167 -129.1333 149° Southeast 530 610 36,900  Level Vancouver Center
06:03PM 46.6833 -129.0500 157° South 530 610 36,900  Level Vancouver Center
06:04PM 46.5500 -128.9500 153° Southeast 540 621 36,900 60 Level Vancouver Center
06:05PM 46.4833 -128.8333 152° Southeast 537 618 37,000 60 Climbing Oakland Oceanic (ODAPS)
06:05PM 46.4167 -128.8333 152° Southeast 540 621 37,000  Level Vancouver Center
06:10PM 45.8250 -128.3620 153° Southeast 534 615 37,000  Level FlightAware
06:10PM 45.7320 -128.2940 152° Southeast 533 613 37,000  Level FlightAware
06:11PM 45.6300 -128.2200 153° Southeast 532 612 37,000  Level FlightAware
06:12PM 45.5440 -128.1560 152° Southeast 531 611 37,000  Level FlightAware
06:13PM 45.4470 -128.0860 153° Southeast 531 611 37,000  Level FlightAware
06:13PM 45.3590 -128.0220 153° Southeast 531 611 37,000  Level FlightAware
06:14PM 45.2710 -127.9580 153° Southeast 530 610 37,000  Level FlightAware
06:15PM 45.1730 -127.8870 153° Southeast 529 609 37,000  Level FlightAware
06:15PM 45.0840 -127.8230 153° Southeast 528 608 37,000  Level FlightAware
06:16PM 44.9980 -127.7620 153° Southeast 528 608 37,000  Level FlightAware
06:17PM 44.9000 -127.6930 153° Southeast 526 605 37,000  Level FlightAware
06:17PM 44.8130 -127.6310 153° Southeast 525 604 37,000  Level FlightAware
06:18PM 44.7190 -127.5640 153° Southeast 524 603 37,000  Level FlightAware
06:19PM 44.6667 -127.5000 153° Southeast 525 604 37,000  Level Oakland Oceanic (ODAPS)
06:19PM 44.6330 -127.5030 153° Southeast 523 602 37,000  Level FlightAware
06:19PM 44.5550 -127.4480 153° Southeast 523 602 37,000  Level FlightAware
06:20PM 44.4820 -127.3950 153° Southeast 523 602 37,000  Level FlightAware
06:21PM 44.4090 -127.3430 153° Southeast 523 602 37,000  Level FlightAware
06:21PM 44.2940 -127.2660 154° Southeast 521 600 37,000  Level FlightAware
06:22PM 44.1790 -127.1860 153° Southeast 520 598 37,000  Level FlightAware
06:23PM 44.0930 -127.1250 153° Southeast 520 598 37,000  Level FlightAware
06:24PM 44.0090 -127.0690 154° Southeast 517 595 37,000  Level FlightAware
06:24PM 43.9260 -127.0100 153° Southeast 517 595 37,000  Level FlightAware
06:27PM 43.6857 -126.7632 143° Southeast  Level Estimated
06:28PM 43.5728 -126.6482 144° Southeast  Level Estimated
06:28PM 43.4570 -126.6910 144° Southeast 514 592 37,000  Level FlightAware
06:29PM 43.3850 -126.6400 153° Southeast 514 592 37,000  Level FlightAware
06:29PM 43.3130 -126.5900 153° Southeast 514 592 37,000  Level FlightAware
06:30PM 43.2230 -126.5270 153° Southeast 514 592 37,000  Level FlightAware
06:31PM 43.1510 -126.4760 153° Southeast 514 592 37,000  Level FlightAware
06:32PM 43.0790 -126.4260 153° Southeast 514 592 37,000  Level FlightAware
06:32PM 43.0070 -126.3760 153° Southeast 514 592 37,000  Level FlightAware
06:35PM 42.7597 -126.0935 140° Southeast  Level FlightAware Approximate
06:36PM 42.6520 -125.9713 140° Southeast  Level FlightAware Approximate
06:37PM 42.5441 -125.8496 140° Southeast  Level FlightAware Approximate
06:37PM 42.5030 -126.0260 140° Southeast 514 592 37,000  Level FlightAware
06:40PM 42.2092 -125.7233 143° Southeast  Level Estimated
06:40PM 41.9867 -125.3775 143° Southeast 517 595 37,000  Level Oakland Center
06:41PM 42.0974 -125.6091 143° Southeast  Level Estimated
06:41PM 41.8664 -125.2711 147° Southeast 518 596 37,000  Level Oakland Center
06:42PM 41.9855 -125.4953 143° Southeast  Level Estimated
06:42PM 41.7464 -125.1683 147° Southeast 513 590 37,000  Level Oakland Center
06:43PM 41.8736 -125.3819 143° Southeast  Level Estimated
06:43PM 41.6247 -125.0639 147° Southeast 518 596 36,900  Level Oakland Center
06:44PM 41.7614 -125.2688 143° Southeast  Level Estimated
06:44PM 41.5039 -124.9611 147° Southeast 516 594 36,900  Level Oakland Center
06:45PM 41.6492 -125.1562 143° Southeast  Level Estimated
06:45PM 41.3556 -124.8367 148° Southeast 516 594 36,900  Level Seattle Center
06:46PM 41.5369 -125.0440 143° Southeast  Level Estimated
06:46PM 41.2386 -124.7353 147° Southeast 504 580 36,900  Level Seattle Center
06:52PM 40.5070 -124.1580 147° Southeast 499 574 37,000  Climbing FlightAware
06:53PM 40.4320 -124.1110 154° Southeast 499 574 37,000  Level FlightAware
06:54PM 40.3340 -124.0540 156° South 493 567 37,000  Level FlightAware
06:55PM 40.2470 -124.0020 155° Southeast 499 574 37,000  Level FlightAware
06:55PM 40.1470 -123.9420 155° Southeast 499 574 37,000  Level FlightAware
06:56PM 40.0770 -123.9000 155° Southeast 499 574 37,000  Level FlightAware
06:57PM 39.9830 -123.8440 155° Southeast 498 573 37,000  Level FlightAware
06:57PM 39.8910 -123.7890 155° Southeast 497 572 37,000  Level FlightAware
06:58PM 39.8100 -123.7410 156° South 497 572 37,000  Level FlightAware
06:59PM 39.7090 -123.6810 155° Southeast 496 571 37,000  Level FlightAware
06:59PM 39.6220 -123.6300 156° South 496 571 37,000  Level FlightAware
07:00PM 39.5250 -123.5730 156° South 495 570 37,000  Level FlightAware
07:01PM 39.4430 -123.5250 156° South 494 568 37,000  Level FlightAware
07:02PM 39.3580 -123.4750 156° South 492 566 37,000  Level FlightAware
07:02PM 39.2710 -123.4240 156° South 493 567 37,000  Level FlightAware
07:03PM 39.1840 -123.3740 156° South 491 565 37,000  Level FlightAware
07:04PM 39.0890 -123.3190 156° South 492 566 37,000  Level FlightAware
07:04PM 39.0080 -123.2630 152° Southeast 494 568 37,000  Level FlightAware
07:05PM 38.9300 -123.2010 148° Southeast 494 568 37,000  Level FlightAware
07:06PM 38.8470 -123.1330 147° Southeast 494 568 37,000  Level FlightAware
07:06PM 38.7680 -123.0700 148° Southeast 493 567 37,000  Level FlightAware
07:07PM 38.6820 -123.0010 148° Southeast 494 568 37,000  Level FlightAware
07:08PM 38.6020 -122.9370 148° Southeast 494 568 37,000  Level FlightAware
07:09PM 38.5240 -122.8750 148° Southeast 494 568 37,000  Level FlightAware
07:09PM 38.4400 -122.8080 148° Southeast 495 570 37,000  Level FlightAware
07:10PM 38.3610 -122.7450 148° Southeast 495 570 37,000  Level FlightAware
07:11PM 38.2730 -122.6760 148° Southeast 496 571 37,000  Level FlightAware
07:11PM 38.1940 -122.6140 148° Southeast 496 571 37,000  Level FlightAware
07:12PM 38.1190 -122.5430 143° Southeast 497 572 37,000  Level FlightAware
07:13PM 38.0380 -122.4700 145° Southeast 495 570 37,000  Level FlightAware
07:13PM 37.9620 -122.4070 147° Southeast 494 568 37,000  Level FlightAware
07:14PM 37.8850 -122.3470 148° Southeast 494 568 37,000  Level FlightAware
07:15PM 37.7950 -122.2770 148° Southeast 492 566 37,000  Level FlightAware
07:16PM 37.7200 -122.2140 146° Southeast 493 567 37,000  Level FlightAware
07:16PM 37.6420 -122.1310 140° Southeast 495 570 37,000  Level FlightAware
07:17PM 37.5730 -122.0530 138° Southeast 494 568 37,000  Level FlightAware
07:18PM 37.5090 -121.9810 138° Southeast 495 570 37,000  Level FlightAware
07:18PM 37.4280 -121.8910 139° Southeast 495 570 37,000  Level FlightAware
07:19PM 37.3580 -121.8140 139° Southeast 495 570 37,000  Level FlightAware
07:20PM 37.2820 -121.7300 139° Southeast 497 572 37,000  Level FlightAware
07:20PM 37.2140 -121.6550 139° Southeast 498 573 37,000  Level FlightAware
07:21PM 37.1440 -121.5780 139° Southeast 498 573 37,000  Level FlightAware
07:22PM 37.0650 -121.4910 139° Southeast 498 573 37,000  Level FlightAware
07:22PM 37.0070 -121.4280 139° Southeast 498 573 37,000  Level FlightAware
07:23PM 36.9220 -121.3360 139° Southeast 499 574 37,000  Level FlightAware
07:24PM 36.8540 -121.2610 139° Southeast 498 573 37,000  Level FlightAware
07:25PM 36.7850 -121.1870 139° Southeast 498 573 37,000  Level FlightAware
07:25PM 36.7070 -121.1030 139° Southeast 500 575 37,000  Level FlightAware
07:26PM 36.6420 -121.0320 139° Southeast 499 574 37,000  Level FlightAware
07:27PM 36.5720 -120.9570 139° Southeast 499 574 37,000  Level FlightAware
07:27PM 36.4830 -120.8620 139° Southeast 497 572 37,000  Level FlightAware
07:28PM 36.4030 -120.7760 139° Southeast 499 574 37,000  Level FlightAware
07:29PM 36.3330 -120.7010 139° Southeast 500 575 37,000  Level FlightAware
07:30PM 36.2630 -120.6260 139° Southeast 500 575 37,000  Level FlightAware
07:30PM 36.1880 -120.5460 139° Southeast 501 577 37,000  Level FlightAware
07:31PM 36.1160 -120.4700 140° Southeast 502 578 37,000  Level FlightAware
07:32PM 36.0350 -120.3850 140° Southeast 504 580 37,000  Level FlightAware
07:32PM 35.9650 -120.3120 140° Southeast 505 581 37,000  Level FlightAware
07:33PM 35.8930 -120.2360 139° Southeast 506 582 37,000  Level FlightAware
07:34PM 35.8140 -120.1530 140° Southeast 505 581 37,000  Level FlightAware
07:34PM 35.7390 -120.0750 140° Southeast 506 582 37,000  Level FlightAware
07:35PM 35.6630 -119.9960 140° Southeast 506 582 37,000  Level FlightAware
07:36PM 35.5880 -119.9270 143° Southeast 505 581 37,000  Level FlightAware
07:36PM 35.5330 -119.8800 145° Southeast 500 575 37,000  Level FlightAware
07:37PM 35.4230 -119.7850 145° Southeast 508 585 37,000  Level FlightAware
07:38PM 35.3450 -119.7180 145° Southeast 506 582 37,000 -900 Level FlightAware
07:39PM 35.2620 -119.6460 145° Southeast 492 566 35,800 -2,280 Descending FlightAware
07:39PM 35.1890 -119.5840 145° Southeast 498 573 33,800 -3,000 Descending FlightAware
07:40PM 35.1100 -119.5170 145° Southeast 496 571 31,800 -2,760 Descending FlightAware
07:41PM 35.0030 -119.4260 145° Southeast 492 566 29,200 -2,340 Descending FlightAware
07:42PM 34.9470 -119.3770 144° Southeast 478 550 28,100 -2,280 Descending FlightAware
07:42PM 34.8570 -119.3010 145° Southeast 474 545 26,200 -2,580 Descending FlightAware
07:43PM 34.7840 -119.2400 146° Southeast 469 540 24,500 -2,340 Descending FlightAware
07:44PM 34.7090 -119.1770 145° Southeast 454 522 22,900 -2,100 Descending FlightAware
07:45PM 34.6230 -119.1040 145° Southeast 436 502 21,400 -2,100 Descending FlightAware
07:45PM 34.5590 -119.0500 145° Southeast 433 498 20,000 -2,280 Descending FlightAware
07:46PM 34.4930 -118.9950 146° Southeast 415 478 18,400 -2,400 Descending FlightAware
07:47PM 34.4290 -118.9420 146° Southeast 408 470 16,800 -2,280 Descending FlightAware
07:47PM 34.3610 -118.8880 147° Southeast 388 447 15,200 -2,160 Descending FlightAware
07:48PM 34.2910 -118.8560 159° South 387 445 13,800 -2,100 Descending FlightAware
07:49PM 34.2140 -118.8290 164° South 372 428 12,300 -1,620 Descending FlightAware
07:49PM 34.1560 -118.8080 163° South 352 405 11,700 -840 Descending FlightAware
07:50PM 34.0930 -118.7730 155° Southeast 335 386 11,200 -720 Descending FlightAware
07:50PM 34.0790 -118.7540 132° Southeast 328 377 11,000 -900 Descending FlightAware
07:51PM 34.0570 -118.6770 109° East 308 354 10,300 -1,080 Descending FlightAware
07:51PM 34.0480 -118.6350 104° East 304 350 9,800 -1,320 Descending FlightAware
07:52PM 34.0380 -118.5860 104° East 303 349 9,100 -1,320 Descending FlightAware
07:52PM 34.0300 -118.5490 105° East 300 345 8,600 -1,200 Descending FlightAware
07:53PM 34.0190 -118.4970 104° East 293 337 8,000 -1,140 Descending FlightAware
07:53PM 34.0120 -118.4530 101° East 288 331 7,500 -1,140 Descending FlightAware
07:54PM 34.0170 -118.4100 82° East 275 316 7,000 -960 Descending FlightAware
07:54PM 34.0220 -118.3750 80° East 262 302 6,700 -660 Descending FlightAware
07:55PM 34.0280 -118.3330 80° East 244 281 6,400 -840 Descending FlightAware
07:55PM 34.0340 -118.2950 79° East 236 272 5,900 -1,320 Descending FlightAware
07:56PM 34.0390 -118.2600 80° East 239 275 5,200 -1,440 Descending FlightAware
07:56PM 34.0330 -118.2220 101° East 223 257 4,600 -1,200 Descending FlightAware
07:56PM 34.0210 -118.2120 145° Southeast 214 246 4,300 -960 Descending FlightAware
07:57PM 33.9980 -118.2190 194° South 193 222 3,900 -1,140 Descending FlightAware
07:57PM 33.9800 -118.2470 232° Southwest 188 216 3,200 -1,560 Descending FlightAware
07:58PM 33.9680 -118.2690 237° Southwest 189 217 2,500 -1,380 Descending FlightAware
07:58PM 33.9650 -118.2870 259° West 189 217 2,200 -780 Descending FlightAware
07:59PM 33.9600 -118.3260 261° West 159 183 1,600 -540 Descending FlightAware
07:59PM 33.9570 -118.3510 262° West 159 183 1,500 -1,020 Descending FlightAware
08:00PM 33.9550 -118.3720 263° West 137 158 700 -1,500 Descending FlightAware
08:00PM 33.9540 -118.3830 264° West 135 155 500 -840 Descending FlightAware
08:01PM 33.9520 -118.4020 263° West 133 153 100 -480 Descending FlightAware
08:01PM 33.9500 -118.4190 262° West 133 153 100  Level FlightAware